createdAt,value
2023-05-15T01:43:24.069Z,98604.88
2023-05-15T01:45:03.252Z,98612.31
2023-05-15T01:46:18.517Z,98602.47
2023-05-15T01:47:51.193Z,98599.22
2023-05-15T01:49:12.080Z,98591.38
2023-05-15T01:50:38.540Z,98583.38
2023-05-15T01:51:53.885Z,98587.72
2023-05-15T01:53:05.526Z,98592.78
2023-05-15T01:54:17.817Z,98579.44
2023-05-15T01:55:26.034Z,98579.44
2023-05-15T01:56:37.565Z,98590.81
2023-05-15T01:59:31.649Z,98587.44
2023-05-15T02:00:48.871Z,98583.50
2023-05-15T02:02:19.756Z,98578.88
2023-05-15T02:03:38.897Z,98577.03
2023-05-15T02:04:53.351Z,98576.88
2023-05-15T02:06:23.965Z,98574.22
2023-05-15T02:07:36.565Z,98573.38
2023-05-15T02:08:52.580Z,98572.97
2023-05-15T02:10:09.637Z,98570.16
2023-05-15T02:11:17.893Z,98567.47
2023-05-15T02:12:30.707Z,98558.50
2023-05-15T02:13:46.680Z,98562.97
2023-05-15T02:14:57.312Z,98562.59
2023-05-15T02:16:10.560Z,98549.94
2023-05-15T02:17:24.875Z,98555.44
2023-05-15T02:18:36.533Z,98554.75
2023-05-15T02:19:48.670Z,98562.03
2023-05-15T02:20:56.739Z,98551.50
2023-05-15T02:22:01.221Z,98551.19
2023-05-15T02:23:07.666Z,98551.34
2023-05-15T02:24:13.935Z,98548.53
2023-05-15T02:25:18.583Z,98538.41
2023-05-15T02:27:06.608Z,98548.25
2023-05-15T02:28:29.728Z,98539.84
2023-05-15T02:30:07.525Z,98542.34
2023-05-15T02:33:59.488Z,98527.59
2023-05-15T02:37:43.188Z,98522.84
2023-05-15T02:39:00.985Z,98514.56
2023-05-15T02:41:50.012Z,98521.00
2023-05-15T02:43:01.756Z,98514.09
2023-05-15T02:45:43.562Z,98516.91
2023-05-15T02:46:53.435Z,98514.22
2023-05-15T02:48:02.126Z,98514.91
2023-05-15T02:49:09.051Z,98518.28
2023-05-15T02:50:22.195Z,98517.28
2023-05-15T02:51:30.399Z,98512.66
2023-05-15T02:52:41.481Z,98520.66
2023-05-15T02:53:53.761Z,98516.16
2023-05-15T02:55:07.404Z,98512.66
2023-05-15T02:56:33.415Z,98512.94
2023-05-15T02:57:52.066Z,98513.78
2023-05-15T02:59:04.428Z,98515.44
2023-05-15T03:00:15.015Z,98512.41
2023-05-15T03:01:23.640Z,98510.94
2023-05-15T03:02:31.669Z,98512.94
2023-05-15T03:03:56.155Z,98514.78
2023-05-15T03:05:07.695Z,98510.56
2023-05-15T03:06:16.055Z,98511.56
2023-05-15T03:07:21.030Z,98510.56
2023-05-15T03:08:33.506Z,98510.94
2023-05-15T03:09:57.873Z,98505.63
2023-05-15T03:11:02.135Z,98503.66
2023-05-15T03:12:10.444Z,98500.16
2023-05-15T03:13:15.637Z,98506.59
2023-05-15T03:14:20.434Z,98502.09
2023-05-15T03:15:27.816Z,98504.50
2023-05-15T03:16:32.489Z,98500.84
2023-05-15T03:17:36.669Z,98503.34
2023-05-15T03:18:42.489Z,98504.66
2023-05-15T03:19:46.478Z,98506.59
2023-05-15T03:20:53.639Z,98503.09
2023-05-15T03:21:58.020Z,98501.72
2023-05-15T03:23:06.147Z,98496.50
2023-05-15T03:24:25.712Z,98503.25
2023-05-15T03:25:45.862Z,98501.56
2023-05-15T03:26:58.993Z,98503.69
2023-05-15T03:28:08.020Z,98504.41
2023-05-15T03:29:21.908Z,98507.91
2023-05-15T03:30:30.496Z,98499.06
2023-05-15T03:31:43.762Z,98502.56
2023-05-15T03:33:05.400Z,98507.66
2023-05-15T03:34:24.958Z,98501.59
2023-05-15T03:35:39.765Z,98506.81
2023-05-15T03:36:49.651Z,98502.75
2023-05-15T03:37:59.444Z,98501.75
2023-05-15T03:39:09.097Z,98508.63
2023-05-15T03:40:21.294Z,98499.38
2023-05-15T03:41:29.291Z,98502.59
2023-05-15T03:42:37.571Z,98487.28
2023-05-15T03:43:43.044Z,98493.59
2023-05-15T03:44:51.785Z,98490.78
2023-05-15T03:46:01.978Z,98491.47
2023-05-15T03:47:11.339Z,98496.81
2023-05-15T03:48:21.892Z,98493.84
2023-05-15T03:49:32.073Z,98492.88
2023-05-15T03:50:43.757Z,98488.06
2023-05-15T03:51:49.910Z,98481.22
2023-05-15T03:52:57.408Z,98485.72
2023-05-15T03:54:16.186Z,98486.81
2023-05-15T03:55:24.023Z,98474.47
2023-05-15T03:56:34.993Z,98480.38
2023-05-15T03:57:49.893Z,98479.22
2023-05-15T03:58:58.492Z,98466.88
2023-05-15T04:00:12.643Z,98480.63
2023-05-15T04:01:22.696Z,98475.28
2023-05-15T04:02:35.814Z,98475.56
2023-05-15T04:03:43.200Z,98473.47
2023-05-15T04:04:50.120Z,98474.31
2023-05-15T04:05:57.253Z,98476.16
2023-05-15T04:07:08.217Z,98469.97
2023-05-15T04:08:20.008Z,98466.31
2023-05-15T04:09:28.698Z,98470.53
2023-05-15T04:10:55.048Z,98474.72
2023-05-15T04:12:14.883Z,98475.28
2023-05-15T04:13:30.009Z,98472.31
2023-05-15T04:14:37.599Z,98465.44
2023-05-15T04:15:55.847Z,98457.81
2023-05-15T04:17:01.866Z,98466.09
2023-05-15T04:18:15.579Z,98459.78
2023-05-15T04:19:23.897Z,98458.94
2023-05-15T04:20:30.429Z,98458.94
2023-05-15T04:21:37.156Z,98457.81
2023-05-15T04:22:48.802Z,98461.56
2023-05-15T04:24:09.038Z,98464.75
2023-05-15T04:25:22.865Z,98463.75
2023-05-15T04:26:28.466Z,98457.91
2023-05-15T04:27:39.234Z,98445.06
2023-05-15T04:29:00.119Z,98445.63
2023-05-15T04:30:14.133Z,98440.66
2023-05-15T04:31:21.800Z,98437.69
2023-05-15T04:32:37.371Z,98438.94
2023-05-15T04:33:44.797Z,98438.09
2023-05-15T04:34:56.066Z,98432.28
2023-05-15T04:36:05.090Z,98428.59
2023-05-15T04:37:28.681Z,98425.94
2023-05-15T04:38:37.768Z,98419.97
2023-05-15T04:39:53.120Z,98409.84
2023-05-15T04:41:12.269Z,98415.72
2023-05-15T04:42:30.607Z,98418.94
2023-05-15T04:43:43.318Z,98422.28
2023-05-15T04:44:55.632Z,98414.94
2023-05-15T04:46:09.330Z,98407.59
2023-05-15T04:47:21.848Z,98405.63
2023-05-15T04:48:46.942Z,98409.66
2023-05-15T04:49:59.744Z,98411.50
2023-05-15T04:51:16.747Z,98419.66
2023-05-15T04:52:27.876Z,98419.22
2023-05-15T04:53:37.872Z,98428.06
2023-05-15T04:54:56.036Z,98421.56
2023-05-15T04:56:08.502Z,98421.41
2023-05-15T04:57:19.834Z,98420.78
2023-05-15T04:58:33.373Z,98416.78
2023-05-15T04:59:46.168Z,98418.28
2023-05-15T05:01:03.684Z,98419.13
2023-05-15T05:02:15.986Z,98430.50
2023-05-15T05:03:27.722Z,98423.09
2023-05-15T05:04:43.443Z,98428.13
2023-05-15T05:05:53.307Z,98420.13
2023-05-15T05:07:07.536Z,98423.19
2023-05-15T05:08:16.563Z,98415.28
2023-05-15T05:09:37.235Z,98421.19
2023-05-15T05:10:43.545Z,98412.63
2023-05-15T05:11:52.619Z,98415.22
2023-05-15T05:12:57.232Z,98411.53
2023-05-15T05:14:02.208Z,98421.06
2023-05-15T05:15:08.298Z,98421.00
2023-05-15T05:16:12.935Z,98433.03
2023-05-15T05:17:20.653Z,98426.34
2023-05-15T05:18:25.200Z,98418.66
2023-05-15T05:19:31.026Z,98433.03
2023-05-15T05:20:36.901Z,98426.69
2023-05-15T05:21:41.172Z,98414.47
2023-05-15T05:22:46.437Z,98407.97
2023-05-15T05:23:56.373Z,98405.78
2023-05-15T05:25:02.350Z,98409.28
2023-05-15T05:26:07.138Z,98408.28
2023-05-15T05:27:11.992Z,98407.63
2023-05-15T05:28:16.912Z,98397.44
2023-05-15T05:29:21.657Z,98406.97
2023-05-15T05:30:26.252Z,98407.38
2023-05-15T05:31:31.186Z,98418.91
2023-05-15T05:32:35.898Z,98419.22
2023-05-15T05:33:42.063Z,98416.38
2023-05-15T05:34:47.640Z,98420.59
2023-05-15T05:35:57.192Z,98419.75
2023-05-15T05:37:02.060Z,98418.00
2023-05-15T05:38:09.398Z,98423.50
2023-05-15T05:39:14.245Z,98423.66
2023-05-15T05:40:18.420Z,98428.03
2023-05-15T05:41:23.942Z,98424.97
2023-05-15T05:42:29.144Z,98432.44
2023-05-15T05:43:34.338Z,98425.06
2023-05-15T05:44:39.658Z,98427.19
2023-05-15T05:45:53.756Z,98418.88
2023-05-15T05:47:10.716Z,98416.50
2023-05-15T05:48:18.000Z,98414.31
2023-05-15T05:49:33.901Z,98420.13
2023-05-15T05:50:47.714Z,98425.41
2023-05-15T05:51:57.139Z,98431.25
2023-05-15T05:53:07.700Z,98437.94
2023-05-15T05:54:19.838Z,98434.88
2023-05-15T05:55:27.824Z,98430.69
2023-05-15T05:56:43.602Z,98423.94
2023-05-15T05:58:02.230Z,98418.09
2023-05-15T05:59:21.172Z,98424.88
2023-05-15T06:00:27.940Z,98413.34
2023-05-15T06:01:33.657Z,98406.34
2023-05-15T06:02:48.304Z,98400.75
2023-05-15T06:03:57.836Z,98398.09
2023-05-15T06:05:24.391Z,98394.59
2023-05-15T06:06:32.501Z,98391.19
2023-05-15T06:07:37.527Z,98398.78
2023-05-15T06:08:59.689Z,98393.75
2023-05-15T06:10:13.165Z,98397.38
2023-05-15T06:11:23.777Z,98391.53
2023-05-15T06:12:36.788Z,98396.88
2023-05-15T06:13:49.035Z,98385.84
2023-05-15T06:14:57.813Z,98388.41
2023-05-15T06:16:12.074Z,98375.88
2023-05-15T06:17:22.595Z,98378.91
2023-05-15T06:18:54.075Z,98359.97
2023-05-15T06:20:10.753Z,98354.63
2023-05-15T06:21:20.000Z,98361.38
2023-05-15T06:22:30.371Z,98346.72
2023-05-15T06:23:43.599Z,98346.19
2023-05-15T06:24:54.249Z,98344.72
2023-05-15T06:26:05.932Z,98352.41
2023-05-15T06:27:17.410Z,98360.16
2023-05-15T06:28:38.589Z,98361.13
2023-05-15T06:30:04.980Z,98356.97
2023-05-15T06:31:14.402Z,98357.19
2023-05-15T06:32:29.724Z,98369.28
2023-05-15T06:33:40.097Z,98353.47
2023-05-15T06:34:56.778Z,98353.66
2023-05-15T06:36:12.187Z,98347.84
2023-05-15T06:37:29.158Z,98349.38
2023-05-15T06:38:37.047Z,98343.22
2023-05-15T06:39:49.354Z,98350.09
2023-05-15T06:41:03.464Z,98346.25
2023-05-15T06:42:18.572Z,98350.94
2023-05-15T06:43:27.754Z,98350.41
2023-05-15T06:44:40.596Z,98348.78
2023-05-15T06:45:51.447Z,98338.72
2023-05-15T06:47:00.082Z,98344.41
2023-05-15T06:48:11.459Z,98345.75
2023-05-15T06:49:28.133Z,98340.78
2023-05-15T06:50:36.492Z,98338.09
2023-05-15T06:52:12.676Z,98342.44
2023-05-15T06:55:06.409Z,98349.19
2023-05-15T06:56:30.521Z,98343.56
2023-05-15T06:57:45.560Z,98342.91
2023-05-15T06:58:56.819Z,98345.09
2023-05-15T07:00:33.612Z,98340.59
2023-05-15T07:01:49.058Z,98339.75
2023-05-15T07:03:07.459Z,98342.91
2023-05-15T07:04:24.360Z,98346.09
2023-05-15T07:05:46.948Z,98339.41
2023-05-15T07:07:08.158Z,98342.72
2023-05-15T07:08:18.451Z,98346.06
2023-05-15T07:09:39.168Z,98347.09
2023-05-15T07:10:51.206Z,98340.44
2023-05-15T07:11:56.841Z,98344.28
2023-05-15T07:13:01.107Z,98347.00
2023-05-15T07:14:09.871Z,98340.34
2023-05-15T07:15:14.584Z,98348.72
2023-05-15T07:16:19.218Z,98343.56
2023-05-15T07:17:24.093Z,98346.44
2023-05-15T07:18:34.351Z,98344.91
2023-05-15T07:19:43.464Z,98338.72
2023-05-15T07:20:48.304Z,98340.59
2023-05-15T07:21:52.913Z,98339.09
2023-05-15T07:22:58.132Z,98354.34
2023-05-15T07:24:16.888Z,98353.31
2023-05-15T07:25:21.839Z,98353.31
2023-05-15T07:26:36.213Z,98356.66
2023-05-15T07:27:49.282Z,98362.19
2023-05-15T07:28:59.937Z,98365.22
2023-05-15T07:30:09.670Z,98348.50
2023-05-15T07:31:27.207Z,98348.69
2023-05-15T07:32:47.115Z,98354.53
2023-05-15T07:33:57.743Z,98350.53
2023-05-15T07:35:06.918Z,98347.34
2023-05-15T07:36:16.985Z,98355.56
2023-05-15T07:37:23.251Z,98349.56
2023-05-15T07:38:28.422Z,98347.56
2023-05-15T07:39:34.949Z,98360.94
2023-05-15T07:42:10.112Z,98357.31
2023-05-15T07:43:16.754Z,98353.78
2023-05-15T07:44:23.388Z,98355.78
2023-05-15T07:45:30.209Z,98362.31
2023-05-15T07:48:21.749Z,98374.38
2023-05-15T07:49:43.834Z,98368.00
2023-05-15T07:50:58.035Z,98360.28
2023-05-15T07:52:03.367Z,98364.69
2023-05-15T07:53:12.531Z,98361.81
2023-05-15T07:54:17.111Z,98361.81
2023-05-15T07:55:22.759Z,98364.16
2023-05-15T07:56:29.605Z,98353.44
2023-05-15T07:57:39.665Z,98355.94
2023-05-15T07:58:50.833Z,98346.22
2023-05-15T08:00:00.305Z,98355.09
2023-05-15T08:01:30.742Z,98354.94
2023-05-15T08:02:38.080Z,98353.59
2023-05-15T08:03:44.417Z,98359.13
2023-05-15T08:04:55.845Z,98355.09
2023-05-15T08:06:04.015Z,98351.94
2023-05-15T08:07:13.743Z,98363.31
2023-05-15T08:08:21.310Z,98365.31
2023-05-15T08:09:39.004Z,98368.34
2023-05-15T08:10:45.374Z,98381.41
2023-05-15T08:14:59.125Z,98382.41
2023-05-15T08:16:21.617Z,98377.91
2023-05-15T08:18:09.696Z,98380.75
2023-05-15T08:19:31.768Z,98372.19
2023-05-15T08:20:51.778Z,98377.72
2023-05-15T08:22:16.346Z,98384.06
2023-05-15T08:23:26.144Z,98368.81
2023-05-15T08:26:22.471Z,98368.84
2023-05-15T08:27:27.671Z,98377.88
2023-05-15T08:28:34.686Z,98369.50
2023-05-15T08:29:42.145Z,98371.00
2023-05-15T08:30:46.977Z,98366.81
2023-05-15T08:31:52.914Z,98366.28
2023-05-15T08:33:23.212Z,98374.16
2023-05-15T08:34:31.035Z,98361.75
2023-05-15T08:35:37.197Z,98367.75
2023-05-15T08:36:47.338Z,98375.31
2023-05-15T08:38:04.477Z,98373.78
2023-05-15T08:39:11.934Z,98381.88
2023-05-15T08:40:38.417Z,98372.13
2023-05-15T08:42:19.628Z,98376.66
2023-05-15T08:43:37.018Z,98383.19
2023-05-15T08:44:56.691Z,98385.69
2023-05-15T08:46:24.184Z,98376.63
2023-05-15T08:47:41.614Z,98379.16
2023-05-15T08:48:47.724Z,98374.97
2023-05-15T08:52:14.967Z,98377.09
2023-05-15T08:53:34.649Z,98380.25
2023-05-15T08:54:46.844Z,98384.94
2023-05-15T08:56:35.617Z,98380.78
2023-05-15T08:58:04.669Z,98378.59
2023-05-15T08:59:42.952Z,98375.25
2023-05-15T09:00:49.554Z,98368.22
2023-05-15T09:02:06.022Z,98379.00
2023-05-15T09:05:10.018Z,98388.19
2023-05-15T09:06:25.594Z,98381.47
2023-05-15T09:07:36.032Z,98384.63
2023-05-15T09:09:24.086Z,98391.97
2023-05-15T09:10:30.476Z,98392.63
2023-05-15T09:11:38.967Z,98396.47
2023-05-15T09:13:14.833Z,98397.88
2023-05-15T09:14:20.111Z,98410.28
2023-05-15T09:15:26.094Z,98396.88
2023-05-15T09:16:30.549Z,98395.69
2023-05-15T09:17:37.673Z,98398.34
2023-05-15T09:18:45.821Z,98388.75
2023-05-15T09:19:50.357Z,98389.06
2023-05-15T09:21:18.283Z,98382.50
2023-05-15T09:22:24.403Z,98382.69
2023-05-15T09:23:28.922Z,98385.75
2023-05-15T09:24:38.662Z,98381.91
2023-05-15T09:26:06.195Z,98378.66
2023-05-15T09:27:18.784Z,98377.13
2023-05-15T09:28:37.888Z,98379.78
2023-05-15T09:29:49.021Z,98378.25
2023-05-15T09:31:07.234Z,98377.91
2023-05-15T09:32:15.971Z,98386.25
2023-05-15T09:33:57.251Z,98389.50
2023-05-15T09:35:40.382Z,98383.75
2023-05-15T09:36:46.662Z,98380.03
2023-05-15T09:38:01.991Z,98377.19
2023-05-15T09:39:09.588Z,98379.34
2023-05-15T09:40:22.312Z,98382.03
2023-05-15T09:41:30.613Z,98389.38
2023-05-15T09:42:37.219Z,98387.16
2023-05-15T09:43:50.536Z,98398.47
2023-05-15T09:45:10.750Z,98394.25
2023-05-15T09:46:19.185Z,98399.81
2023-05-15T09:47:25.638Z,98406.16
2023-05-15T09:48:40.478Z,98414.72
2023-05-15T09:50:02.294Z,98416.25
2023-05-15T09:51:24.584Z,98418.28
2023-05-15T09:52:33.416Z,98417.28
2023-05-15T09:53:48.680Z,98420.34
2023-05-15T09:56:49.837Z,98407.94
2023-05-15T09:58:19.743Z,98407.66
2023-05-15T09:59:38.403Z,98400.13
2023-05-15T10:00:51.026Z,98393.78
2023-05-15T10:02:09.355Z,98390.28
2023-05-15T10:03:23.678Z,98381.91
2023-05-15T10:04:37.026Z,98393.34
2023-05-15T10:05:47.221Z,98383.06
2023-05-15T10:07:04.952Z,98390.94
2023-05-15T10:08:17.363Z,98389.56
2023-05-15T10:09:57.200Z,98400.03
2023-05-15T10:11:18.807Z,98384.06
2023-05-15T10:12:43.249Z,98383.19
2023-05-15T10:14:03.284Z,98383.53
2023-05-15T10:15:15.100Z,98376.81
2023-05-15T10:16:36.547Z,98388.53
2023-05-15T10:17:50.271Z,98391.03
2023-05-15T10:19:32.568Z,98384.22
2023-05-15T10:21:09.216Z,98392.47
2023-05-15T10:22:19.494Z,98394.44
2023-05-15T10:23:47.595Z,98396.63
2023-05-15T10:25:38.299Z,98399.13
2023-05-15T10:26:48.762Z,98394.25
2023-05-15T10:28:19.141Z,98399.44
2023-05-15T10:29:33.087Z,98394.25
2023-05-15T10:31:14.773Z,98397.09
2023-05-15T10:32:24.220Z,98393.06
2023-05-15T10:33:49.780Z,98385.16
2023-05-15T10:35:02.815Z,98386.94
2023-05-15T10:36:25.756Z,98397.84
2023-05-15T10:37:49.998Z,98405.34
2023-05-15T10:39:10.213Z,98406.81
2023-05-15T10:40:26.787Z,98398.09
2023-05-15T10:41:56.587Z,98410.50
2023-05-15T10:43:04.402Z,98418.88
2023-05-15T10:46:32.441Z,98417.88
2023-05-15T10:47:53.643Z,98412.03
2023-05-15T10:49:14.337Z,98413.53
2023-05-15T10:50:37.863Z,98414.88
2023-05-15T10:52:01.762Z,98418.56
2023-05-15T10:53:20.264Z,98418.56
2023-05-15T10:55:07.020Z,98420.91
2023-05-15T10:58:21.748Z,98422.59
2023-05-15T10:59:48.951Z,98423.25
2023-05-15T11:01:39.585Z,98410.34
2023-05-15T11:02:51.075Z,98419.06
2023-05-15T11:04:27.381Z,98417.53
2023-05-15T11:06:35.399Z,98405.81
2023-05-15T11:08:04.665Z,98401.28
2023-05-15T11:09:50.183Z,98401.44
2023-05-15T11:11:07.816Z,98404.59
2023-05-15T11:12:59.544Z,98401.28
2023-05-15T11:14:11.159Z,98395.72
2023-05-15T11:15:15.574Z,98395.72
2023-05-15T11:16:54.119Z,98394.34
2023-05-15T11:18:07.228Z,98393.47
2023-05-15T11:19:58.788Z,98395.47
2023-05-15T11:21:04.440Z,98399.66
2023-05-15T11:22:32.954Z,98400.69
2023-05-15T11:23:42.369Z,98401.22
2023-05-15T11:25:17.495Z,98395.00
2023-05-15T11:26:45.127Z,98393.78
2023-05-15T11:28:14.078Z,98391.28
2023-05-15T11:29:36.749Z,98385.09
2023-05-15T11:35:20.379Z,98404.72
2023-05-15T11:36:50.676Z,98405.44
2023-05-15T11:38:11.270Z,98402.09
2023-05-15T11:39:29.760Z,98396.75
2023-05-15T11:41:05.139Z,98392.78
2023-05-15T11:42:16.465Z,98394.75
2023-05-15T11:43:40.684Z,98397.59
2023-05-15T11:45:03.226Z,98384.31
2023-05-15T11:46:16.048Z,98386.63
2023-05-15T11:47:22.064Z,98384.47
2023-05-15T11:50:29.351Z,98383.41
2023-05-15T11:51:50.976Z,98387.25
2023-05-15T11:53:13.296Z,98385.41
2023-05-15T11:54:39.791Z,98388.53
2023-05-15T11:55:55.434Z,98392.06
2023-05-15T11:57:10.422Z,98387.53
2023-05-15T11:58:18.507Z,98384.31
2023-05-15T11:59:32.715Z,98380.06
2023-05-15T12:00:53.358Z,98386.69
2023-05-15T12:02:11.821Z,98381.91
2023-05-15T12:03:37.457Z,98387.31
2023-05-15T12:04:56.204Z,98387.69
2023-05-15T12:06:06.739Z,98381.06
2023-05-15T12:07:19.190Z,98379.78
2023-05-15T12:08:27.750Z,98377.66
2023-05-15T12:09:51.182Z,98367.97
2023-05-15T12:11:02.357Z,98364.84
2023-05-15T12:12:26.365Z,98366.97
2023-05-15T12:13:41.827Z,98371.88
2023-05-15T12:15:00.920Z,98362.88
2023-05-15T12:16:08.538Z,98359.72
2023-05-15T12:17:17.558Z,98372.63
2023-05-15T12:18:34.023Z,98365.47
2023-05-15T12:20:00.369Z,98359.16
2023-05-15T12:21:10.154Z,98354.59
2023-05-15T12:22:46.511Z,98362.22
2023-05-15T12:25:15.912Z,98360.06
2023-05-15T12:26:28.598Z,98359.72
2023-05-15T12:27:37.514Z,98351.00
2023-05-15T12:28:54.814Z,98354.97
2023-05-15T12:30:15.167Z,98354.97
2023-05-15T12:31:31.064Z,98350.22
2023-05-15T12:32:37.726Z,98352.34
2023-05-15T12:33:51.673Z,98358.69
2023-05-15T12:35:17.531Z,98365.00
2023-05-15T12:36:35.720Z,98357.47
2023-05-15T12:37:51.823Z,98358.97
2023-05-15T12:39:17.045Z,98362.94
2023-05-15T12:41:02.290Z,98357.00
2023-05-15T12:42:24.035Z,98358.84
2023-05-15T12:44:05.656Z,98356.59
2023-05-15T12:45:29.828Z,98347.50
2023-05-15T12:46:38.528Z,98345.38
2023-05-15T12:47:59.643Z,98352.72
2023-05-15T12:49:26.382Z,98347.31
2023-05-15T12:50:41.749Z,98342.84
2023-05-15T12:51:59.569Z,98347.22
2023-05-15T12:53:19.954Z,98335.31
2023-05-15T12:54:51.431Z,98330.38
2023-05-15T12:56:02.376Z,98332.72
2023-05-15T12:57:06.935Z,98331.69
2023-05-15T12:58:29.033Z,98332.00
2023-05-15T13:00:27.498Z,98333.56
2023-05-15T13:02:30.430Z,98333.16
2023-05-15T13:03:57.482Z,98334.91
2023-05-15T13:06:07.601Z,98331.00
2023-05-15T13:07:26.597Z,98330.94
2023-05-15T13:08:45.869Z,98333.25
2023-05-15T13:10:24.986Z,98334.34
2023-05-15T13:12:13.288Z,98338.78
2023-05-15T13:14:00.062Z,98329.34
2023-05-15T13:15:07.824Z,98330.75
2023-05-15T13:16:33.359Z,98326.59
2023-05-15T13:17:40.566Z,98322.28
2023-05-15T13:18:49.450Z,98324.66
2023-05-15T13:19:55.080Z,98320.91
2023-05-15T13:21:00.965Z,98322.28
2023-05-15T13:22:07.935Z,98324.13
2023-05-15T13:23:25.289Z,98327.44
2023-05-15T13:24:34.334Z,98333.94
2023-05-15T13:25:39.705Z,98326.44
2023-05-15T13:26:45.305Z,98325.34
2023-05-15T13:29:46.297Z,98338.44
2023-05-15T13:31:03.908Z,98337.59
2023-05-15T13:32:23.761Z,98344.75
2023-05-15T13:34:01.740Z,98346.81
2023-05-15T13:36:00.792Z,98344.13
2023-05-15T13:37:18.467Z,98341.16
2023-05-15T13:38:30.251Z,98349.97
2023-05-15T13:39:34.583Z,98341.41
2023-05-15T13:40:49.999Z,98335.81
2023-05-15T13:44:19.206Z,98339.59
2023-05-15T13:45:59.595Z,98341.03
2023-05-15T13:51:23.830Z,98338.91
2023-05-15T13:53:09.548Z,98341.09
2023-05-15T13:55:02.901Z,98354.63
2023-05-15T13:56:37.669Z,98356.09
2023-05-15T14:02:40.896Z,98351.72
2023-05-15T14:03:53.058Z,98369.19
2023-05-15T14:05:22.487Z,98368.19
2023-05-15T14:06:45.613Z,98377.06
2023-05-15T14:08:22.191Z,98361.28
2023-05-15T14:10:01.731Z,98377.94
2023-05-15T14:11:50.627Z,98375.41
2023-05-15T14:13:02.618Z,98372.56
2023-05-15T14:14:12.465Z,98374.22
2023-05-15T14:15:18.540Z,98370.53
2023-05-15T14:16:29.121Z,98369.19
2023-05-15T14:17:40.583Z,98378.03
2023-05-15T14:19:13.634Z,98365.44
2023-05-15T14:20:40.776Z,98373.13
2023-05-15T14:22:35.178Z,98378.75
2023-05-15T14:23:55.739Z,98372.78
2023-05-15T14:25:37.321Z,98371.38
2023-05-15T14:26:57.266Z,98371.13
2023-05-15T14:28:22.990Z,98367.84
2023-05-15T14:29:42.139Z,98368.88
2023-05-15T14:31:20.437Z,98364.78
2023-05-15T14:32:25.434Z,98371.09
2023-05-15T14:33:46.610Z,98366.00
2023-05-15T14:35:03.544Z,98367.97
2023-05-15T14:36:25.105Z,98365.75
2023-05-15T14:37:43.248Z,98366.03
2023-05-15T14:39:00.891Z,98354.28
2023-05-15T14:40:18.640Z,98358.44
2023-05-15T14:41:28.921Z,98356.22
2023-05-15T14:42:37.338Z,98357.00
2023-05-15T14:43:44.480Z,98357.44
2023-05-15T14:46:38.969Z,98355.50
2023-05-15T14:47:54.586Z,98354.16
2023-05-15T14:49:08.412Z,98359.84
2023-05-15T14:50:23.079Z,98350.16
2023-05-15T14:54:32.686Z,98341.97
2023-05-15T14:56:01.767Z,98345.25
2023-05-15T14:57:29.166Z,98346.25
2023-05-15T14:58:52.702Z,98341.53
2023-05-15T15:01:33.054Z,98338.94
2023-05-15T15:04:28.046Z,98348.78
2023-05-15T15:06:06.720Z,98353.63
2023-05-15T15:09:09.673Z,98358.44
2023-05-15T15:10:46.517Z,98356.03
2023-05-15T15:12:01.521Z,98359.34
2023-05-15T15:13:26.049Z,98360.78
2023-05-15T15:14:49.272Z,98360.00
2023-05-15T15:15:57.722Z,98359.84
2023-05-15T15:18:55.569Z,98355.38
2023-05-15T15:20:18.782Z,98358.25
2023-05-15T15:21:40.271Z,98348.88
2023-05-15T15:23:23.673Z,98343.75
2023-05-15T15:24:36.174Z,98349.91
2023-05-15T15:25:50.657Z,98348.59
2023-05-15T15:27:01.107Z,98353.88
2023-05-15T17:04:19.788Z,98428.84
2023-05-15T17:05:24.771Z,98432.56
2023-05-15T17:06:41.075Z,98433.78
2023-05-15T17:07:45.681Z,98424.88
2023-05-15T17:09:03.866Z,98431.09
2023-05-15T17:10:10.727Z,98427.56
2023-05-15T17:11:15.017Z,98426.41
2023-05-15T17:12:21.756Z,98433.00
2023-05-15T17:13:27.822Z,98430.31
2023-05-15T17:14:34.612Z,98428.28
2023-05-15T17:15:39.347Z,98430.31
2023-05-15T17:16:45.825Z,98430.84
2023-05-15T17:17:50.457Z,98429.66
2023-05-15T17:19:08.887Z,98441.09
2023-05-15T17:20:13.604Z,98442.75
2023-05-15T17:21:17.935Z,98445.25
2023-05-15T17:22:24.309Z,98446.09
2023-05-15T17:23:28.331Z,98448.47
2023-05-15T17:24:49.355Z,98452.84
2023-05-15T17:25:57.820Z,98446.28
2023-05-15T17:27:12.335Z,98445.06
2023-05-15T17:28:17.036Z,98454.81
2023-05-15T17:29:21.689Z,98445.44
2023-05-15T17:30:31.096Z,98455.56
2023-05-15T17:31:39.741Z,98449.69
2023-05-15T17:32:56.486Z,98453.19
2023-05-15T17:34:01.393Z,98453.19
2023-05-15T17:35:06.993Z,98447.19
2023-05-15T17:36:18.568Z,98453.38
2023-05-15T17:37:37.396Z,98451.91
2023-05-15T17:38:44.209Z,98446.22
2023-05-15T17:39:48.434Z,98454.28
2023-05-15T17:40:54.957Z,98454.47
2023-05-15T17:41:59.614Z,98455.00
2023-05-15T17:43:11.155Z,98456.00
2023-05-15T17:44:15.610Z,98451.84
2023-05-15T17:45:19.824Z,98459.41
2023-05-15T17:46:25.924Z,98455.06
2023-05-15T17:47:36.629Z,98462.81
2023-05-15T17:48:41.487Z,98464.34
2023-05-15T17:49:45.970Z,98469.06
2023-05-15T17:50:51.221Z,98464.19
2023-05-15T17:51:55.545Z,98465.22
2023-05-15T17:52:59.834Z,98470.09
2023-05-15T17:54:08.052Z,98475.81
2023-05-15T17:55:12.143Z,98467.97
2023-05-15T17:56:17.968Z,98479.41
2023-05-15T17:57:41.854Z,98479.28
2023-05-15T17:58:47.589Z,98482.47
2023-05-15T18:00:51.997Z,98490.72
2023-05-15T18:01:56.824Z,98486.34
2023-05-15T18:03:01.977Z,98482.16
2023-05-15T18:04:15.477Z,98481.50
2023-05-15T18:06:04.004Z,98489.88
2023-05-15T18:07:48.659Z,98487.56
2023-05-15T18:09:12.313Z,98497.63
2023-05-15T18:10:20.430Z,98492.97
2023-05-15T18:11:38.692Z,98492.97
2023-05-15T18:12:59.593Z,98498.00
2023-05-15T18:14:04.103Z,98506.06
2023-05-15T18:15:10.083Z,98497.53
2023-05-15T18:16:58.826Z,98511.44
2023-05-15T18:18:04.036Z,98510.47
2023-05-15T18:19:28.025Z,98516.50
2023-05-15T18:20:32.820Z,98523.72
2023-05-15T18:22:03.865Z,98529.09
2023-05-15T18:23:14.006Z,98526.22
2023-05-15T18:24:18.694Z,98529.94
2023-05-15T18:25:23.713Z,98533.31
2023-05-15T18:26:31.732Z,98534.28
2023-05-15T18:27:37.161Z,98548.06
2023-05-15T18:28:41.725Z,98541.50
2023-05-15T18:29:46.382Z,98545.75
2023-05-15T18:30:52.058Z,98541.19
2023-05-15T18:31:56.973Z,98541.69
2023-05-15T18:33:01.450Z,98539.69
2023-05-15T18:34:05.783Z,98546.72
2023-05-15T18:35:12.771Z,98541.34
2023-05-15T18:36:24.691Z,98539.50
2023-05-15T18:37:29.426Z,98527.78
2023-05-15T18:38:40.543Z,98540.69
2023-05-15T18:39:47.097Z,98531.78
2023-05-15T18:40:54.301Z,98530.13
2023-05-15T18:42:00.105Z,98534.66
2023-05-15T18:43:05.127Z,98537.53
2023-05-15T18:44:10.063Z,98537.00
2023-05-15T18:45:14.321Z,98546.41
2023-05-15T18:46:18.706Z,98541.38
2023-05-15T18:47:29.810Z,98548.03
2023-05-15T18:48:34.306Z,98549.44
2023-05-15T18:49:38.938Z,98544.38
2023-05-15T18:50:43.904Z,98552.09
2023-05-15T18:51:48.581Z,98551.72
2023-05-15T18:52:55.175Z,98547.91
2023-05-15T18:54:05.652Z,98554.75
2023-05-15T18:55:10.427Z,98541.69
2023-05-15T18:56:17.419Z,98548.56
2023-05-15T18:57:22.144Z,98555.25
2023-05-15T18:58:26.980Z,98551.72
2023-05-15T18:59:32.183Z,98554.75
2023-05-15T19:00:39.245Z,98556.78
2023-05-15T19:01:45.253Z,98557.75
2023-05-15T19:02:50.615Z,98560.44
2023-05-15T19:03:59.126Z,98563.97